sensor_id;sensor_type;location;lat;lon;timestamp;P1;durP1;ratioP1;P2;durP2;ratioP2
18320;SDS011;54904;54.350;18.664;2023-09-19T00:00:17;2.95;;;2.75;;
18320;SDS011;54904;54.350;18.664;2023-09-19T00:02:46;2.47;;;2.38;;
18320;SDS011;54904;54.350;18.664;2023-09-19T00:05:18;2.92;;;2.50;;
18320;SDS011;54904;54.350;18.664;2023-09-19T00:07:49;3.15;;;2.90;;
18320;SDS011;54904;54.350;18.664;2023-09-19T00:10:20;3.35;;;3.10;;
18320;SDS011;54904;54.350;18.664;2023-09-19T00:12:51;6.28;;;3.35;;
18320;SDS011;54904;54.350;18.664;2023-09-19T00:15:20;3.35;;;3.15;;
18320;SDS011;54904;54.350;18.664;2023-09-19T00:17:47;3.40;;;3.20;;
18320;SDS011;54904;54.350;18.664;2023-09-19T00:20:18;3.50;;;3.30;;
18320;SDS011;54904;54.350;18.664;2023-09-19T00:22:46;4.05;;;3.75;;
18320;SDS011;54904;54.350;18.664;2023-09-19T00:25:14;3.80;;;3.50;;
18320;SDS011;54904;54.350;18.664;2023-09-19T00:27:41;3.90;;;3.60;;
18320;SDS011;54904;54.350;18.664;2023-09-19T00:30:12;3.92;;;3.53;;
18320;SDS011;54904;54.350;18.664;2023-09-19T00:32:42;3.50;;;3.30;;
18320;SDS011;54904;54.350;18.664;2023-09-19T00:35:12;3.80;;;3.50;;
18320;SDS011;54904;54.350;18.664;2023-09-19T00:37:50;3.80;;;3.50;;
18320;SDS011;54904;54.350;18.664;2023-09-19T00:40:18;4.60;;;4.20;;
18320;SDS011;54904;54.350;18.664;2023-09-19T00:42:47;3.83;;;3.53;;
18320;SDS011;54904;54.350;18.664;2023-09-19T00:45:17;3.38;;;3.17;;
18320;SDS011;54904;54.350;18.664;2023-09-19T00:47:46;3.95;;;3.65;;
18320;SDS011;54904;54.350;18.664;2023-09-19T00:50:16;4.22;;;3.92;;
18320;SDS011;54904;54.350;18.664;2023-09-19T00:52:46;5.20;;;4.80;;
18320;SDS011;54904;54.350;18.664;2023-09-19T00:55:15;5.63;;;5.13;;
18320;SDS011;54904;54.350;18.664;2023-09-19T00:57:46;4.65;;;4.28;;
18320;SDS011;54904;54.350;18.664;2023-09-19T01:00:16;4.47;;;4.07;;
18320;SDS011;54904;54.350;18.664;2023-09-19T01:02:45;4.30;;;4.00;;
18320;SDS011;54904;54.350;18.664;2023-09-19T01:05:13;3.85;;;3.65;;
18320;SDS011;54904;54.350;18.664;2023-09-19T01:07:41;3.72;;;3.42;;
18320;SDS011;54904;54.350;18.664;2023-09-19T01:10:12;3.35;;;3.15;;
18320;SDS011;54904;54.350;18.664;2023-09-19T01:12:45;3.35;;;3.15;;
18320;SDS011;54904;54.350;18.664;2023-09-19T01:15:24;3.40;;;3.10;;
18320;SDS011;54904;54.350;18.664;2023-09-19T01:18:00;3.50;;;3.30;;
18320;SDS011;54904;54.350;18.664;2023-09-19T01:20:45;3.58;;;3.28;;
18320;SDS011;54904;54.350;18.664;2023-09-19T01:23:21;3.67;;;3.38;;
18320;SDS011;54904;54.350;18.664;2023-09-19T01:26:05;3.63;;;3.30;;
18320;SDS011;54904;54.350;18.664;2023-09-19T01:28:45;3.45;;;3.15;;
18320;SDS011;54904;54.350;18.664;2023-09-19T01:31:24;3.60;;;3.40;;
18320;SDS011;54904;54.350;18.664;2023-09-19T01:34:02;3.50;;;3.30;;
18320;SDS011;54904;54.350;18.664;2023-09-19T01:36:31;3.88;;;3.47;;
18320;SDS011;54904;54.350;18.664;2023-09-19T01:39:06;2.95;;;2.75;;
18320;SDS011;54904;54.350;18.664;2023-09-19T01:41:49;4.13;;;3.78;;
18320;SDS011;54904;54.350;18.664;2023-09-19T01:44:33;3.60;;;3.40;;
18320;SDS011;54904;54.350;18.664;2023-09-19T01:47:12;4.25;;;3.92;;
18320;SDS011;54904;54.350;18.664;2023-09-19T01:49:48;4.00;;;3.70;;
18320;SDS011;54904;54.350;18.664;2023-09-19T01:52:23;4.43;;;4.13;;
18320;SDS011;54904;54.350;18.664;2023-09-19T01:54:55;4.47;;;4.07;;
18320;SDS011;54904;54.350;18.664;2023-09-19T01:57:32;4.60;;;4.20;;
18320;SDS011;54904;54.350;18.664;2023-09-19T02:00:05;3.95;;;3.70;;
18320;SDS011;54904;54.350;18.664;2023-09-19T02:02:42;4.50;;;4.10;;
18320;SDS011;54904;54.350;18.664;2023-09-19T02:05:11;4.75;;;4.32;;
18320;SDS011;54904;54.350;18.664;2023-09-19T02:07:40;3.97;;;3.67;;
18320;SDS011;54904;54.350;18.664;2023-09-19T02:10:08;3.55;;;3.35;;
18320;SDS011;54904;54.350;18.664;2023-09-19T02:12:37;7.22;;;5.90;;
18320;SDS011;54904;54.350;18.664;2023-09-19T02:15:05;5.25;;;4.85;;
18320;SDS011;54904;54.350;18.664;2023-09-19T02:17:33;5.00;;;4.60;;
18320;SDS011;54904;54.350;18.664;2023-09-19T02:20:01;4.80;;;4.40;;
18320;SDS011;54904;54.350;18.664;2023-09-19T02:22:35;5.03;;;4.57;;
18320;SDS011;54904;54.350;18.664;2023-09-19T02:25:05;4.03;;;3.72;;
18320;SDS011;54904;54.350;18.664;2023-09-19T02:27:33;4.28;;;3.88;;
18320;SDS011;54904;54.350;18.664;2023-09-19T02:30:01;7.18;;;4.30;;
18320;SDS011;54904;54.350;18.664;2023-09-19T02:32:29;3.95;;;3.60;;
18320;SDS011;54904;54.350;18.664;2023-09-19T02:34:56;4.55;;;4.25;;
18320;SDS011;54904;54.350;18.664;2023-09-19T02:40:55;4.47;;;4.18;;
18320;SDS011;54904;54.350;18.664;2023-09-19T02:43:22;4.72;;;4.35;;
18320;SDS011;54904;54.350;18.664;2023-09-19T02:45:50;4.75;;;4.35;;
18320;SDS011;54904;54.350;18.664;2023-09-19T02:48:18;4.70;;;4.28;;
18320;SDS011;54904;54.350;18.664;2023-09-19T02:50:46;4.40;;;4.03;;
18320;SDS011;54904;54.350;18.664;2023-09-19T02:53:15;4.00;;;3.70;;
18320;SDS011;54904;54.350;18.664;2023-09-19T02:55:46;4.00;;;3.53;;
18320;SDS011;54904;54.350;18.664;2023-09-19T02:58:16;4.00;;;3.70;;
18320;SDS011;54904;54.350;18.664;2023-09-19T03:00:43;5.43;;;4.00;;
18320;SDS011;54904;54.350;18.664;2023-09-19T03:03:12;4.25;;;3.85;;
18320;SDS011;54904;54.350;18.664;2023-09-19T03:05:43;3.90;;;3.60;;
18320;SDS011;54904;54.350;18.664;2023-09-19T03:08:15;3.55;;;3.35;;
18320;SDS011;54904;54.350;18.664;2023-09-19T03:10:42;3.42;;;3.22;;
18320;SDS011;54904;54.350;18.664;2023-09-19T03:13:17;3.40;;;3.20;;
18320;SDS011;54904;54.350;18.664;2023-09-19T03:15:45;3.53;;;3.22;;
18320;SDS011;54904;54.350;18.664;2023-09-19T03:18:18;3.45;;;3.25;;
18320;SDS011;54904;54.350;18.664;2023-09-19T03:20:52;3.33;;;3.05;;
18320;SDS011;54904;54.350;18.664;2023-09-19T03:23:21;2.92;;;2.72;;
18320;SDS011;54904;54.350;18.664;2023-09-19T03:25:51;4.55;;;4.13;;
18320;SDS011;54904;54.350;18.664;2023-09-19T03:28:20;3.15;;;2.95;;
18320;SDS011;54904;54.350;18.664;2023-09-19T03:30:56;3.00;;;2.80;;
18320;SDS011;54904;54.350;18.664;2023-09-19T03:33:25;2.90;;;2.78;;
18320;SDS011;54904;54.350;18.664;2023-09-19T03:35:56;3.67;;;3.47;;
18320;SDS011;54904;54.350;18.664;2023-09-19T03:38:24;2.47;;;2.38;;
18320;SDS011;54904;54.350;18.664;2023-09-19T03:40:51;2.50;;;2.30;;
18320;SDS011;54904;54.350;18.664;2023-09-19T03:43:20;2.30;;;2.20;;
18320;SDS011;54904;54.350;18.664;2023-09-19T03:45:47;2.08;;;1.98;;
18320;SDS011;54904;54.350;18.664;2023-09-19T03:48:17;1.65;;;1.60;;
18320;SDS011;54904;54.350;18.664;2023-09-19T03:50:45;1.50;;;1.50;;
18320;SDS011;54904;54.350;18.664;2023-09-19T03:53:13;1.30;;;1.20;;
18320;SDS011;54904;54.350;18.664;2023-09-19T03:55:40;1.38;;;1.38;;
18320;SDS011;54904;54.350;18.664;2023-09-19T03:58:07;1.20;;;1.20;;
18320;SDS011;54904;54.350;18.664;2023-09-19T04:00:36;1.13;;;1.13;;
18320;SDS011;54904;54.350;18.664;2023-09-19T04:03:06;1.38;;;1.38;;
18320;SDS011;54904;54.350;18.664;2023-09-19T04:05:34;0.98;;;0.98;;
18320;SDS011;54904;54.350;18.664;2023-09-19T04:08:01;1.10;;;1.10;;
18320;SDS011;54904;54.350;18.664;2023-09-19T04:10:28;0.90;;;0.90;;
18320;SDS011;54904;54.350;18.664;2023-09-19T04:12:56;1.85;;;1.75;;
18320;SDS011;54904;54.350;18.664;2023-09-19T04:15:23;1.40;;;1.30;;
18320;SDS011;54904;54.350;18.664;2023-09-19T04:17:54;1.27;;;1.27;;
18320;SDS011;54904;54.350;18.664;2023-09-19T04:20:21;1.30;;;1.20;;
18320;SDS011;54904;54.350;18.664;2023-09-19T04:22:49;1.30;;;1.20;;
18320;SDS011;54904;54.350;18.664;2023-09-19T04:25:16;1.20;;;1.20;;
18320;SDS011;54904;54.350;18.664;2023-09-19T04:27:47;0.90;;;0.90;;
18320;SDS011;54904;54.350;18.664;2023-09-19T04:30:14;0.93;;;0.93;;
18320;SDS011;54904;54.350;18.664;2023-09-19T04:32:41;3.80;;;1.10;;
18320;SDS011;54904;54.350;18.664;2023-09-19T04:35:10;1.17;;;1.17;;
18320;SDS011;54904;54.350;18.664;2023-09-19T04:37:37;1.80;;;1.70;;
18320;SDS011;54904;54.350;18.664;2023-09-19T04:40:06;1.50;;;1.40;;
18320;SDS011;54904;54.350;18.664;2023-09-19T04:42:39;1.52;;;1.42;;
18320;SDS011;54904;54.350;18.664;2023-09-19T04:45:07;2.30;;;2.20;;
18320;SDS011;54904;54.350;18.664;2023-09-19T04:47:35;3.38;;;2.90;;
18320;SDS011;54904;54.350;18.664;2023-09-19T04:50:05;2.53;;;2.33;;
18320;SDS011;54904;54.350;18.664;2023-09-19T04:52:41;2.17;;;2.08;;
18320;SDS011;54904;54.350;18.664;2023-09-19T04:55:09;2.15;;;2.05;;
18320;SDS011;54904;54.350;18.664;2023-09-19T04:57:42;2.28;;;2.17;;
18320;SDS011;54904;54.350;18.664;2023-09-19T05:00:11;1.90;;;1.80;;
18320;SDS011;54904;54.350;18.664;2023-09-19T05:02:40;1.77;;;1.67;;
18320;SDS011;54904;54.350;18.664;2023-09-19T05:05:08;1.83;;;1.73;;
18320;SDS011;54904;54.350;18.664;2023-09-19T05:07:36;2.05;;;1.95;;
18320;SDS011;54904;54.350;18.664;2023-09-19T05:10:14;3.45;;;3.15;;
18320;SDS011;54904;54.350;18.664;2023-09-19T05:12:43;3.00;;;2.80;;
18320;SDS011;54904;54.350;18.664;2023-09-19T05:15:16;2.80;;;2.60;;
18320;SDS011;54904;54.350;18.664;2023-09-19T05:17:47;2.65;;;2.45;;
18320;SDS011;54904;54.350;18.664;2023-09-19T05:20:16;2.75;;;2.55;;
18320;SDS011;54904;54.350;18.664;2023-09-19T05:22:50;2.22;;;2.13;;
18320;SDS011;54904;54.350;18.664;2023-09-19T05:25:25;2.42;;;2.33;;
18320;SDS011;54904;54.350;18.664;2023-09-19T05:27:57;2.72;;;2.53;;
18320;SDS011;54904;54.350;18.664;2023-09-19T05:30:26;3.10;;;2.80;;
18320;SDS011;54904;54.350;18.664;2023-09-19T05:32:54;3.10;;;2.75;;
18320;SDS011;54904;54.350;18.664;2023-09-19T05:35:22;4.50;;;4.05;;
18320;SDS011;54904;54.350;18.664;2023-09-19T05:37:50;4.20;;;3.80;;
18320;SDS011;54904;54.350;18.664;2023-09-19T05:40:18;4.57;;;4.10;;
18320;SDS011;54904;54.350;18.664;2023-09-19T05:42:47;4.18;;;3.80;;
18320;SDS011;54904;54.350;18.664;2023-09-19T05:45:16;3.85;;;3.55;;
18320;SDS011;54904;54.350;18.664;2023-09-19T05:47:47;4.22;;;2.95;;
18320;SDS011;54904;54.350;18.664;2023-09-19T05:50:15;2.50;;;2.38;;
18320;SDS011;54904;54.350;18.664;2023-09-19T05:52:51;2.55;;;2.35;;
18320;SDS011;54904;54.350;18.664;2023-09-19T05:55:18;2.58;;;2.42;;
18320;SDS011;54904;54.350;18.664;2023-09-19T05:57:50;2.40;;;2.30;;
18320;SDS011;54904;54.350;18.664;2023-09-19T06:00:18;2.20;;;2.10;;
18320;SDS011;54904;54.350;18.664;2023-09-19T06:02:49;2.83;;;2.10;;
18320;SDS011;54904;54.350;18.664;2023-09-19T06:05:17;1.98;;;1.88;;
18320;SDS011;54904;54.350;18.664;2023-09-19T06:07:45;1.88;;;1.77;;
18320;SDS011;54904;54.350;18.664;2023-09-19T06:10:18;1.52;;;1.52;;
18320;SDS011;54904;54.350;18.664;2023-09-19T06:12:47;1.80;;;1.70;;
18320;SDS011;54904;54.350;18.664;2023-09-19T06:15:16;2.17;;;2.00;;
18320;SDS011;54904;54.350;18.664;2023-09-19T06:17:46;1.90;;;1.80;;
18320;SDS011;54904;54.350;18.664;2023-09-19T06:20:14;2.30;;;2.10;;
18320;SDS011;54904;54.350;18.664;2023-09-19T06:22:42;2.00;;;1.90;;
18320;SDS011;54904;54.350;18.664;2023-09-19T06:25:10;1.95;;;1.85;;
18320;SDS011;54904;54.350;18.664;2023-09-19T06:27:44;2.80;;;2.60;;
18320;SDS011;54904;54.350;18.664;2023-09-19T06:30:13;2.95;;;2.30;;
18320;SDS011;54904;54.350;18.664;2023-09-19T06:32:41;2.63;;;2.28;;
18320;SDS011;54904;54.350;18.664;2023-09-19T06:35:09;2.20;;;2.10;;
18320;SDS011;54904;54.350;18.664;2023-09-19T06:37:36;2.70;;;2.50;;
18320;SDS011;54904;54.350;18.664;2023-09-19T06:40:05;2.60;;;2.40;;
18320;SDS011;54904;54.350;18.664;2023-09-19T06:42:38;2.75;;;2.55;;
18320;SDS011;54904;54.350;18.664;2023-09-19T06:45:07;2.30;;;2.20;;
18320;SDS011;54904;54.350;18.664;2023-09-19T06:47:38;1.90;;;1.80;;
18320;SDS011;54904;54.350;18.664;2023-09-19T06:50:06;2.03;;;1.92;;
18320;SDS011;54904;54.350;18.664;2023-09-19T06:52:38;1.67;;;1.58;;
18320;SDS011;54904;54.350;18.664;2023-09-19T06:55:06;1.95;;;1.85;;
18320;SDS011;54904;54.350;18.664;2023-09-19T06:57:34;1.30;;;1.30;;
18320;SDS011;54904;54.350;18.664;2023-09-19T07:00:02;1.67;;;1.58;;
18320;SDS011;54904;54.350;18.664;2023-09-19T07:02:34;1.70;;;1.60;;
18320;SDS011;54904;54.350;18.664;2023-09-19T07:05:03;1.95;;;1.85;;
18320;SDS011;54904;54.350;18.664;2023-09-19T07:07:35;1.65;;;1.55;;
18320;SDS011;54904;54.350;18.664;2023-09-19T07:10:05;1.55;;;1.45;;
18320;SDS011;54904;54.350;18.664;2023-09-19T07:12:35;1.77;;;1.35;;
18320;SDS011;54904;54.350;18.664;2023-09-19T07:15:02;1.50;;;1.40;;
18320;SDS011;54904;54.350;18.664;2023-09-19T07:17:33;1.30;;;1.30;;
18320;SDS011;54904;54.350;18.664;2023-09-19T07:20:00;3.03;;;1.80;;
18320;SDS011;54904;54.350;18.664;2023-09-19T07:22:33;2.03;;;1.67;;
18320;SDS011;54904;54.350;18.664;2023-09-19T07:25:01;1.52;;;1.52;;
18320;SDS011;54904;54.350;18.664;2023-09-19T07:27:28;1.95;;;1.85;;
18320;SDS011;54904;54.350;18.664;2023-09-19T07:29:55;2.72;;;2.55;;
18320;SDS011;54904;54.350;18.664;2023-09-19T07:32:24;2.88;;;2.15;;
18320;SDS011;54904;54.350;18.664;2023-09-19T07:34:51;1.70;;;1.60;;
18320;SDS011;54904;54.350;18.664;2023-09-19T07:37:21;2.05;;;1.70;;
18320;SDS011;54904;54.350;18.664;2023-09-19T07:39:51;2.78;;;2.15;;
18320;SDS011;54904;54.350;18.664;2023-09-19T07:42:18;2.90;;;1.95;;
18320;SDS011;54904;54.350;18.664;2023-09-19T07:44:45;1.90;;;1.80;;
18320;SDS011;54904;54.350;18.664;2023-09-19T07:47:15;1.65;;;1.52;;
18320;SDS011;54904;54.350;18.664;2023-09-19T07:49:42;2.05;;;1.90;;
18320;SDS011;54904;54.350;18.664;2023-09-19T07:52:09;2.45;;;1.70;;
18320;SDS011;54904;54.350;18.664;2023-09-19T07:54:38;2.15;;;1.67;;
18320;SDS011;54904;54.350;18.664;2023-09-19T07:57:06;2.58;;;1.65;;
18320;SDS011;54904;54.350;18.664;2023-09-19T07:59:34;1.88;;;1.77;;
18320;SDS011;54904;54.350;18.664;2023-09-19T08:02:01;2.08;;;1.98;;
18320;SDS011;54904;54.350;18.664;2023-09-19T08:04:33;2.33;;;1.60;;
18320;SDS011;54904;54.350;18.664;2023-09-19T08:07:02;1.60;;;1.50;;
18320;SDS011;54904;54.350;18.664;2023-09-19T08:09:34;1.90;;;1.80;;
18320;SDS011;54904;54.350;18.664;2023-09-19T08:12:05;3.17;;;1.83;;
18320;SDS011;54904;54.350;18.664;2023-09-19T08:14:33;2.05;;;1.63;;
18320;SDS011;54904;54.350;18.664;2023-09-19T08:17:00;1.63;;;1.63;;
18320;SDS011;54904;54.350;18.664;2023-09-19T08:19:27;1.77;;;1.67;;
18320;SDS011;54904;54.350;18.664;2023-09-19T08:21:55;1.90;;;1.40;;
18320;SDS011;54904;54.350;18.664;2023-09-19T08:24:24;2.00;;;1.90;;
18320;SDS011;54904;54.350;18.664;2023-09-19T08:26:52;1.67;;;1.58;;
18320;SDS011;54904;54.350;18.664;2023-09-19T08:29:22;2.47;;;1.80;;
18320;SDS011;54904;54.350;18.664;2023-09-19T08:31:53;3.00;;;1.70;;
18320;SDS011;54904;54.350;18.664;2023-09-19T08:34:21;2.35;;;1.77;;
18320;SDS011;54904;54.350;18.664;2023-09-19T08:36:50;2.15;;;1.95;;
18320;SDS011;54904;54.350;18.664;2023-09-19T08:39:18;1.83;;;1.70;;
18320;SDS011;54904;54.350;18.664;2023-09-19T08:41:45;1.85;;;1.73;;
18320;SDS011;54904;54.350;18.664;2023-09-19T08:44:12;2.00;;;1.90;;
18320;SDS011;54904;54.350;18.664;2023-09-19T08:46:41;2.00;;;1.80;;
18320;SDS011;54904;54.350;18.664;2023-09-19T08:49:13;2.22;;;1.98;;
18320;SDS011;54904;54.350;18.664;2023-09-19T08:51:49;2.80;;;1.52;;
18320;SDS011;54904;54.350;18.664;2023-09-19T08:54:24;1.55;;;1.40;;
18320;SDS011;54904;54.350;18.664;2023-09-19T08:56:52;1.50;;;1.40;;
18320;SDS011;54904;54.350;18.664;2023-09-19T08:59:21;1.10;;;1.10;;
18320;SDS011;54904;54.350;18.664;2023-09-19T09:01:53;1.50;;;1.40;;
18320;SDS011;54904;54.350;18.664;2023-09-19T09:04:21;1.40;;;1.30;;
18320;SDS011;54904;54.350;18.664;2023-09-19T09:06:49;1.23;;;1.23;;
18320;SDS011;54904;54.350;18.664;2023-09-19T09:09:18;1.17;;;1.17;;
18320;SDS011;54904;54.350;18.664;2023-09-19T09:11:47;1.40;;;1.40;;
18320;SDS011;54904;54.350;18.664;2023-09-19T09:14:15;1.20;;;1.10;;
18320;SDS011;54904;54.350;18.664;2023-09-19T09:16:42;1.30;;;1.17;;
18320;SDS011;54904;54.350;18.664;2023-09-19T09:19:11;1.05;;;0.95;;
18320;SDS011;54904;54.350;18.664;2023-09-19T09:21:39;1.50;;;1.40;;
18320;SDS011;54904;54.350;18.664;2023-09-19T09:26:53;1.40;;;1.30;;
18320;SDS011;54904;54.350;18.664;2023-09-19T09:29:35;1.55;;;1.45;;
18320;SDS011;54904;54.350;18.664;2023-09-19T09:32:19;1.35;;;1.25;;
18320;SDS011;54904;54.350;18.664;2023-09-19T09:34:50;1.40;;;1.30;;
18320;SDS011;54904;54.350;18.664;2023-09-19T09:37:18;1.30;;;1.20;;
18320;SDS011;54904;54.350;18.664;2023-09-19T09:39:50;2.72;;;1.20;;
18320;SDS011;54904;54.350;18.664;2023-09-19T09:42:31;1.10;;;1.10;;
18320;SDS011;54904;54.350;18.664;2023-09-19T09:45:16;1.67;;;1.48;;
18320;SDS011;54904;54.350;18.664;2023-09-19T09:47:53;1.17;;;1.10;;
18320;SDS011;54904;54.350;18.664;2023-09-19T09:50:29;0.98;;;0.98;;
18320;SDS011;54904;54.350;18.664;2023-09-19T09:53:22;1.25;;;1.15;;
18320;SDS011;54904;54.350;18.664;2023-09-19T09:55:59;1.67;;;1.42;;
18320;SDS011;54904;54.350;18.664;2023-09-19T09:58:30;4.50;;;1.63;;
18320;SDS011;54904;54.350;18.664;2023-09-19T10:00:58;1.05;;;1.05;;
18320;SDS011;54904;54.350;18.664;2023-09-19T10:03:32;1.38;;;1.27;;
18320;SDS011;54904;54.350;18.664;2023-09-19T10:06:06;0.90;;;0.90;;
18320;SDS011;54904;54.350;18.664;2023-09-19T10:09:00;3.40;;;1.20;;
18320;SDS011;54904;54.350;18.664;2023-09-19T10:11:38;2.25;;;1.25;;
18320;SDS011;54904;54.350;18.664;2023-09-19T10:14:09;1.10;;;1.00;;
18320;SDS011;54904;54.350;18.664;2023-09-19T10:16:40;1.30;;;1.20;;
18320;SDS011;54904;54.350;18.664;2023-09-19T10:19:11;1.10;;;1.00;;
18320;SDS011;54904;54.350;18.664;2023-09-19T10:21:44;1.10;;;1.10;;
18320;SDS011;54904;54.350;18.664;2023-09-19T10:24:12;1.35;;;1.05;;
18320;SDS011;54904;54.350;18.664;2023-09-19T10:26:42;1.65;;;1.15;;
18320;SDS011;54904;54.350;18.664;2023-09-19T10:29:11;1.63;;;1.15;;
18320;SDS011;54904;54.350;18.664;2023-09-19T10:31:41;1.40;;;1.30;;
18320;SDS011;54904;54.350;18.664;2023-09-19T10:34:13;1.27;;;1.17;;
18320;SDS011;54904;54.350;18.664;2023-09-19T10:36:45;1.20;;;1.10;;
18320;SDS011;54904;54.350;18.664;2023-09-19T10:39:13;1.13;;;1.10;;
18320;SDS011;54904;54.350;18.664;2023-09-19T10:41:47;1.50;;;1.40;;
18320;SDS011;54904;54.350;18.664;2023-09-19T10:44:24;1.63;;;1.20;;
18320;SDS011;54904;54.350;18.664;2023-09-19T10:46:53;1.20;;;1.20;;
18320;SDS011;54904;54.350;18.664;2023-09-19T10:49:22;1.08;;;1.08;;
18320;SDS011;54904;54.350;18.664;2023-09-19T10:51:53;1.05;;;0.95;;
18320;SDS011;54904;54.350;18.664;2023-09-19T10:54:24;1.77;;;1.23;;
18320;SDS011;54904;54.350;18.664;2023-09-19T10:56:55;1.00;;;0.90;;
18320;SDS011;54904;54.350;18.664;2023-09-19T10:59:24;2.85;;;1.10;;
18320;SDS011;54904;54.350;18.664;2023-09-19T11:02:00;2.13;;;1.35;;
18320;SDS011;54904;54.350;18.664;2023-09-19T11:04:43;1.33;;;1.00;;
18320;SDS011;54904;54.350;18.664;2023-09-19T11:07:14;0.77;;;0.77;;
18320;SDS011;54904;54.350;18.664;2023-09-19T11:09:42;0.88;;;0.88;;
18320;SDS011;54904;54.350;18.664;2023-09-19T11:12:12;1.00;;;1.00;;
18320;SDS011;54904;54.350;18.664;2023-09-19T11:15:11;0.98;;;0.98;;
18320;SDS011;54904;54.350;18.664;2023-09-19T11:24:29;1.75;;;1.10;;
18320;SDS011;54904;54.350;18.664;2023-09-19T11:29:46;1.27;;;1.17;;
18320;SDS011;54904;54.350;18.664;2023-09-19T11:32:14;2.25;;;1.40;;
18320;SDS011;54904;54.350;18.664;2023-09-19T11:34:42;3.40;;;0.90;;
18320;SDS011;54904;54.350;18.664;2023-09-19T11:40:46;1.42;;;1.33;;
18320;SDS011;54904;54.350;18.664;2023-09-19T11:43:32;1.13;;;1.13;;
18320;SDS011;54904;54.350;18.664;2023-09-19T11:46:04;1.27;;;1.17;;
18320;SDS011;54904;54.350;18.664;2023-09-19T11:48:32;3.15;;;1.75;;
18320;SDS011;54904;54.350;18.664;2023-09-19T11:51:09;1.35;;;1.25;;
18320;SDS011;54904;54.350;18.664;2023-09-19T11:53:48;1.48;;;1.38;;
18320;SDS011;54904;54.350;18.664;2023-09-19T11:56:18;1.73;;;1.23;;
18320;SDS011;54904;54.350;18.664;2023-09-19T11:58:48;1.20;;;1.00;;
18320;SDS011;54904;54.350;18.664;2023-09-19T12:01:21;1.45;;;1.23;;
18320;SDS011;54904;54.350;18.664;2023-09-19T12:03:52;1.20;;;1.10;;
18320;SDS011;54904;54.350;18.664;2023-09-19T12:06:22;1.23;;;1.13;;
18320;SDS011;54904;54.350;18.664;2023-09-19T12:08:50;2.15;;;1.17;;
18320;SDS011;54904;54.350;18.664;2023-09-19T12:11:21;1.40;;;1.30;;
18320;SDS011;54904;54.350;18.664;2023-09-19T12:13:49;1.10;;;1.10;;
18320;SDS011;54904;54.350;18.664;2023-09-19T12:16:19;1.00;;;1.00;;
18320;SDS011;54904;54.350;18.664;2023-09-19T12:18:50;1.17;;;1.10;;
18320;SDS011;54904;54.350;18.664;2023-09-19T12:21:25;2.30;;;1.15;;
18320;SDS011;54904;54.350;18.664;2023-09-19T12:24:00;1.23;;;1.10;;
18320;SDS011;54904;54.350;18.664;2023-09-19T12:26:38;1.30;;;1.17;;
18320;SDS011;54904;54.350;18.664;2023-09-19T12:29:11;1.45;;;1.20;;
18320;SDS011;54904;54.350;18.664;2023-09-19T12:31:52;0.98;;;0.98;;
18320;SDS011;54904;54.350;18.664;2023-09-19T12:34:23;1.15;;;1.05;;
18320;SDS011;54904;54.350;18.664;2023-09-19T12:37:08;1.02;;;1.02;;
18320;SDS011;54904;54.350;18.664;2023-09-19T12:39:41;2.13;;;1.42;;
18320;SDS011;54904;54.350;18.664;2023-09-19T12:42:15;1.40;;;1.30;;
18320;SDS011;54904;54.350;18.664;2023-09-19T12:44:44;1.35;;;1.30;;
18320;SDS011;54904;54.350;18.664;2023-09-19T12:47:12;1.20;;;1.20;;
18320;SDS011;54904;54.350;18.664;2023-09-19T12:52:45;1.10;;;1.00;;
18320;SDS011;54904;54.350;18.664;2023-09-19T12:55:21;0.93;;;0.93;;
18320;SDS011;54904;54.350;18.664;2023-09-19T12:58:01;1.10;;;1.05;;
18320;SDS011;54904;54.350;18.664;2023-09-19T13:00:38;1.00;;;1.00;;
18320;SDS011;54904;54.350;18.664;2023-09-19T13:03:11;0.80;;;0.80;;
18320;SDS011;54904;54.350;18.664;2023-09-19T13:05:50;1.10;;;1.00;;
18320;SDS011;54904;54.350;18.664;2023-09-19T13:08:20;0.90;;;0.90;;
18320;SDS011;54904;54.350;18.664;2023-09-19T13:11:04;0.85;;;0.85;;
18320;SDS011;54904;54.350;18.664;2023-09-19T13:13:36;1.42;;;1.00;;
18320;SDS011;54904;54.350;18.664;2023-09-19T13:16:04;1.23;;;1.00;;
18320;SDS011;54904;54.350;18.664;2023-09-19T13:18:47;0.88;;;0.88;;
18320;SDS011;54904;54.350;18.664;2023-09-19T13:21:26;1.20;;;1.10;;
18320;SDS011;54904;54.350;18.664;2023-09-19T13:23:55;1.95;;;0.98;;
18320;SDS011;54904;54.350;18.664;2023-09-19T13:26:42;3.53;;;1.05;;
18320;SDS011;54904;54.350;18.664;2023-09-19T13:29:11;1.00;;;1.00;;
18320;SDS011;54904;54.350;18.664;2023-09-19T13:31:39;1.10;;;1.10;;
18320;SDS011;54904;54.350;18.664;2023-09-19T13:34:08;1.00;;;1.00;;
18320;SDS011;54904;54.350;18.664;2023-09-19T13:36:35;2.17;;;0.90;;
18320;SDS011;54904;54.350;18.664;2023-09-19T13:39:03;1.00;;;0.90;;
18320;SDS011;54904;54.350;18.664;2023-09-19T13:41:32;0.80;;;0.80;;
18320;SDS011;54904;54.350;18.664;2023-09-19T13:44:01;1.23;;;1.10;;
18320;SDS011;54904;54.350;18.664;2023-09-19T13:46:31;0.90;;;0.90;;
18320;SDS011;54904;54.350;18.664;2023-09-19T13:49:00;1.00;;;1.00;;
18320;SDS011;54904;54.350;18.664;2023-09-19T13:51:28;1.75;;;1.13;;
18320;SDS011;54904;54.350;18.664;2023-09-19T13:53:57;1.00;;;1.00;;
18320;SDS011;54904;54.350;18.664;2023-09-19T13:56:24;1.70;;;1.25;;
18320;SDS011;54904;54.350;18.664;2023-09-19T13:58:53;1.20;;;1.10;;
18320;SDS011;54904;54.350;18.664;2023-09-19T14:01:20;2.10;;;1.35;;
18320;SDS011;54904;54.350;18.664;2023-09-19T14:03:48;1.10;;;1.10;;
18320;SDS011;54904;54.350;18.664;2023-09-19T14:06:16;1.13;;;1.13;;
18320;SDS011;54904;54.350;18.664;2023-09-19T14:08:43;1.25;;;1.17;;
18320;SDS011;54904;54.350;18.664;2023-09-19T14:11:13;0.90;;;0.90;;
18320;SDS011;54904;54.350;18.664;2023-09-19T14:13:42;0.88;;;0.88;;
18320;SDS011;54904;54.350;18.664;2023-09-19T14:16:13;1.05;;;1.05;;
18320;SDS011;54904;54.350;18.664;2023-09-19T14:18:42;1.25;;;1.05;;
18320;SDS011;54904;54.350;18.664;2023-09-19T14:21:12;1.17;;;1.10;;
18320;SDS011;54904;54.350;18.664;2023-09-19T14:23:40;1.30;;;1.20;;
18320;SDS011;54904;54.350;18.664;2023-09-19T14:26:08;2.13;;;1.17;;
18320;SDS011;54904;54.350;18.664;2023-09-19T14:28:35;1.15;;;1.08;;
18320;SDS011;54904;54.350;18.664;2023-09-19T14:31:04;1.60;;;1.40;;
18320;SDS011;54904;54.350;18.664;2023-09-19T14:33:32;1.08;;;0.98;;
18320;SDS011;54904;54.350;18.664;2023-09-19T14:36:02;1.30;;;1.20;;
18320;SDS011;54904;54.350;18.664;2023-09-19T14:38:32;1.38;;;1.27;;
18320;SDS011;54904;54.350;18.664;2023-09-19T14:40:59;1.92;;;1.38;;
18320;SDS011;54904;54.350;18.664;2023-09-19T14:43:27;1.17;;;1.13;;
18320;SDS011;54904;54.350;18.664;2023-09-19T14:45:55;2.17;;;1.27;;
18320;SDS011;54904;54.350;18.664;2023-09-19T14:48:23;1.23;;;1.13;;
18320;SDS011;54904;54.350;18.664;2023-09-19T14:50:51;1.00;;;1.00;;
18320;SDS011;54904;54.350;18.664;2023-09-19T14:53:18;2.30;;;1.02;;
18320;SDS011;54904;54.350;18.664;2023-09-19T14:55:47;1.17;;;0.90;;
18320;SDS011;54904;54.350;18.664;2023-09-19T14:58:17;2.00;;;0.82;;
18320;SDS011;54904;54.350;18.664;2023-09-19T15:00:44;1.02;;;0.98;;
18320;SDS011;54904;54.350;18.664;2023-09-19T15:03:11;1.15;;;1.10;;
18320;SDS011;54904;54.350;18.664;2023-09-19T15:05:40;1.27;;;0.90;;
18320;SDS011;54904;54.350;18.664;2023-09-19T15:08:07;1.15;;;1.00;;
18320;SDS011;54904;54.350;18.664;2023-09-19T15:10:34;1.30;;;1.20;;
18320;SDS011;54904;54.350;18.664;2023-09-19T15:13:02;1.20;;;1.20;;
18320;SDS011;54904;54.350;18.664;2023-09-19T15:15:31;1.20;;;1.10;;